Pagina principale
METAR-TAF:

METAR-TAF

Aeroporti :

Piattaforma petrolifera

Goeree Le, Paesi Bassi

latitudine: 51-55-33N, longitudine: 3-40-12E, altezza: 19 m

Osservazione

Il bollettino è stato emesso 27 minuti fa, alle 01:25 UTC
Vento 16 kt da est
Temperature 16°C
Umidità 68%
Pressione 1022 hPa
Visibilità 10 km o più

METAR: EHSC 310125Z AUTO 08016KT 9999 ///////// 16/10 Q1022 W14/H8

Ora: 03:52 (01:52 UTC)


TAF: mancante

Osservazioni e previsioni meteorologiche di più di 4000 aeroporti (messaggi METAR e TAF).

Le stazioni disponibili sono rappresentate dai dischi gialli e rossi sulla carta.

Puntare il mouse per vedere il nome della stazione.

Clicca sopra per visualizzare le osservazioni e previsioni meteorologiche.

Per cambiare la mappa : fare clic sui pulsanti verdi con una croce nera per ingrandire, il pulsante verde con un trattino per diminuire, o sulla freccia verde per le mappe adiacenti.


METAR-TAF: